This is the latest recevied weather packets stored in our database for station/object IN3MWE-10. If no packets are shown the sender has not sent any weather packets the latest 10 day(s).
| Time | Temp. | Humidity | Pressure | Rain* | Wind** | Luminosity | Snow |
|---|---|---|---|---|---|---|---|
| 1787520923 | 21.67° C | 78% | 983.1 hPa | - | - | - | - |
| 1787520023 | 22.22° C | 77% | 983.1 hPa | - | - | - | - |
| 1787519123 | 22.22° C | 76% | 982.9 hPa | - | - | - | - |
| 1787518223 | 22.22° C | 76% | 982.8 hPa | - | - | - | - |
| 1787517323 | 22.78° C | 73% | 982.7 hPa | - | - | - | - |
| 1787516423 | 22.78° C | 72% | 982.9 hPa | - | - | - | - |
| 1787515523 | 22.78° C | 74% | 982.7 hPa | - | - | - | - |
| 1787514622 | 22.78° C | 73% | 982.7 hPa | - | - | - | - |
| 1787513722 | 22.78° C | 73% | 982.6 hPa | - | - | - | - |
| 1787512822 | 23.33° C | 73% | 982.5 hPa | - | - | - | - |
| 1787511922 | 23.33° C | 72% | 982.4 hPa | - | - | - | - |
| 1787511022 | 23.33° C | 71% | 982.2 hPa | - | - | - | - |
| 1787510122 | 23.33° C | 71% | 981.8 hPa | - | - | - | - |
| 1787509222 | 23.89° C | 69% | 981.5 hPa | - | - | - | - |
| 1787508321 | 23.89° C | 69% | 981.4 hPa | - | - | - | - |
| 1787507421 | 24.44° C | 63% | 981.2 hPa | - | - | - | - |
| 1787506521 | 24.44° C | 69% | 981 hPa | - | - | - | - |
| 1787505621 | 25.56° C | 61% | 980.8 hPa | - | - | - | - |
| 1787504721 | 26.11° C | 52% | 980.8 hPa | - | - | - | - |
| 1787503821 | 26.67° C | 54% | 980.7 hPa | - | - | - | - |
| 1787502921 | 26.67° C | 50% | 980.8 hPa | - | - | - | - |
| 1787502020 | 27.22° C | 47% | 980.8 hPa | - | - | - | - |
| 1787501120 | 31.11° C | 36% | 980.6 hPa | - | - | - | - |
| 1787500220 | 32.78° C | 32% | 980.6 hPa | - | - | - | - |
| 1787499320 | 32.78° C | 30% | 980.7 hPa | - | - | - | - |
* Rain since midnight (hover to see other rain measurements)
** Current wind speed in m/s (hover to see current wind gust speed)